createdAt,value
2023-03-17T00:01:44.839Z,100856.66
2023-03-17T00:04:12.613Z,100869.66
2023-03-17T00:06:41.032Z,100871.28
2023-03-17T00:09:12.760Z,100861.22
2023-03-17T00:11:39.354Z,100867.44
2023-03-17T00:14:05.706Z,100855.38
2023-03-17T00:16:37.154Z,100866.19
2023-03-17T00:19:03.907Z,100863.28
2023-03-17T00:21:32.362Z,100869.03
2023-03-17T00:23:59.367Z,100876.00
2023-03-17T00:26:26.914Z,100863.38
2023-03-17T00:28:53.988Z,100852.66
2023-03-17T00:31:29.307Z,100849.19
2023-03-17T00:33:56.392Z,100858.13
2023-03-17T00:36:28.499Z,100856.34
2023-03-17T00:38:55.491Z,100857.31
2023-03-17T00:41:22.039Z,100846.19
2023-03-17T00:43:48.939Z,100862.28
2023-03-17T00:46:27.530Z,100858.75
2023-03-17T00:48:54.652Z,100857.31
2023-03-17T00:51:21.788Z,100848.25
2023-03-17T00:53:48.210Z,100839.97
2023-03-17T00:56:20.621Z,100836.63
2023-03-17T00:58:48.478Z,100831.91
2023-03-17T01:01:15.132Z,100850.78
2023-03-17T01:03:41.682Z,100844.13
2023-03-17T01:06:11.812Z,100847.72
2023-03-17T01:08:40.218Z,100835.22
2023-03-17T01:11:06.611Z,100831.81
2023-03-17T01:13:33.240Z,100845.28
2023-03-17T01:15:59.681Z,100830.31
2023-03-17T01:18:26.051Z,100837.13
2023-03-17T01:20:52.403Z,100826.06
2023-03-17T01:23:18.822Z,100816.66
2023-03-17T01:25:45.205Z,100821.25
2023-03-17T01:28:16.913Z,100808.41
2023-03-17T01:30:43.841Z,100792.97
2023-03-17T01:33:11.707Z,100790.75
2023-03-17T01:35:39.382Z,100780.75
2023-03-17T01:38:06.286Z,100786.94
2023-03-17T01:40:36.902Z,100795.72
2023-03-17T01:43:06.224Z,100801.25
2023-03-17T01:46:10.169Z,100808.06
2023-03-17T01:48:43.813Z,100800.75
2023-03-17T01:51:15.574Z,100797.28
2023-03-17T01:53:45.051Z,100803.44
2023-03-17T01:56:11.930Z,100804.25
2023-03-17T01:58:38.911Z,100801.66
2023-03-17T02:01:06.422Z,100794.69
2023-03-17T02:03:33.297Z,100795.00
2023-03-17T02:06:00.908Z,100788.84
2023-03-17T02:08:27.424Z,100782.38
2023-03-17T02:10:55.870Z,100779.94
2023-03-17T02:13:22.559Z,100771.50
2023-03-17T02:15:51.000Z,100777.69
2023-03-17T02:18:20.411Z,100767.75
2023-03-17T02:20:46.674Z,100766.13
2023-03-17T02:23:15.044Z,100770.03
2023-03-17T02:25:44.295Z,100762.44
2023-03-17T02:28:15.931Z,100745.75
2023-03-17T02:30:43.726Z,100752.22
2023-03-17T02:33:11.274Z,100754.34
2023-03-17T02:35:38.836Z,100763.31
2023-03-17T02:38:05.248Z,100759.16
2023-03-17T02:40:32.068Z,100755.66
2023-03-17T02:42:59.519Z,100751.41
2023-03-17T02:45:25.888Z,100760.84
2023-03-17T02:47:52.366Z,100755.19
2023-03-17T02:50:22.618Z,100758.31
2023-03-17T02:52:49.758Z,100753.28
2023-03-17T02:55:16.642Z,100751.19
2023-03-17T02:57:43.441Z,100749.09
2023-03-17T03:00:10.512Z,100746.88
2023-03-17T03:02:40.156Z,100748.81
2023-03-17T03:05:07.565Z,100742.81
2023-03-17T03:07:34.439Z,100745.94
2023-03-17T03:10:00.826Z,100735.75
2023-03-17T03:12:27.160Z,100748.41
2023-03-17T03:14:53.412Z,100743.06
2023-03-17T03:17:21.026Z,100754.88
2023-03-17T03:19:47.828Z,100760.88
2023-03-17T03:22:14.170Z,100759.44
2023-03-17T03:24:40.404Z,100760.41
2023-03-17T03:27:06.805Z,100765.97
2023-03-17T03:29:33.250Z,100756.19
2023-03-17T03:31:59.775Z,100770.97
2023-03-17T03:34:26.162Z,100763.84
2023-03-17T03:36:52.471Z,100756.84
2023-03-17T03:39:18.854Z,100743.06
2023-03-17T03:41:45.198Z,100734.44
2023-03-17T03:44:11.488Z,100734.44
2023-03-17T03:46:37.984Z,100739.78
2023-03-17T03:49:04.442Z,100747.09
2023-03-17T03:51:30.822Z,100746.91
2023-03-17T03:53:57.195Z,100757.94
2023-03-17T03:56:23.434Z,100766.19
2023-03-17T03:58:50.267Z,100758.22
2023-03-17T04:01:16.912Z,100761.81
2023-03-17T04:03:43.305Z,100771.03
2023-03-17T04:06:09.723Z,100760.50
2023-03-17T04:08:36.135Z,100764.06
2023-03-17T04:11:02.611Z,100757.25
2023-03-17T04:13:28.964Z,100756.09
2023-03-17T04:15:55.686Z,100752.50
2023-03-17T04:18:22.188Z,100756.72
2023-03-17T04:20:48.512Z,100749.41
2023-03-17T04:23:14.903Z,100748.59
2023-03-17T04:25:41.326Z,100754.44
2023-03-17T04:28:07.722Z,100746.66
2023-03-17T04:30:34.025Z,100751.31
2023-03-17T04:33:00.388Z,100760.72
2023-03-17T04:35:26.809Z,100760.91
2023-03-17T04:37:53.170Z,100753.91
2023-03-17T04:40:19.485Z,100761.53
2023-03-17T04:42:46.761Z,100757.16
2023-03-17T04:45:13.945Z,100764.41
2023-03-17T04:47:40.358Z,100769.91
2023-03-17T04:50:07.586Z,100774.75
2023-03-17T04:52:34.416Z,100776.66
2023-03-17T04:55:00.812Z,100771.91
2023-03-17T04:57:27.275Z,100771.75
2023-03-17T04:59:53.670Z,100764.41
2023-03-17T05:02:20.133Z,100764.84
2023-03-17T05:04:46.762Z,100768.75
2023-03-17T05:07:14.289Z,100767.75
2023-03-17T05:09:41.129Z,100753.78
2023-03-17T05:12:08.273Z,100767.41
2023-03-17T05:14:34.605Z,100765.44
2023-03-17T05:17:00.892Z,100769.94
2023-03-17T05:19:27.727Z,100767.75
2023-03-17T05:21:54.056Z,100764.81
2023-03-17T05:24:20.383Z,100762.84
2023-03-17T05:26:46.801Z,100770.81
2023-03-17T05:29:13.313Z,100770.81
2023-03-17T05:31:39.945Z,100776.66
2023-03-17T05:34:06.610Z,100779.25
2023-03-17T05:36:33.221Z,100788.06
2023-03-17T05:38:59.641Z,100781.22
2023-03-17T05:41:25.972Z,100780.78
2023-03-17T05:43:52.534Z,100772.78
2023-03-17T05:46:20.431Z,100759.44
2023-03-17T05:48:46.996Z,100769.84
2023-03-17T05:51:13.345Z,100761.44
2023-03-17T05:53:39.687Z,100759.97
2023-03-17T05:56:06.191Z,100762.56
2023-03-17T05:58:32.903Z,100761.06
2023-03-17T06:00:59.570Z,100755.63
2023-03-17T06:03:26.666Z,100742.28
2023-03-17T06:05:53.128Z,100743.91
2023-03-17T06:08:19.533Z,100747.72
2023-03-17T06:10:46.947Z,100744.75
2023-03-17T06:13:13.415Z,100750.66
2023-03-17T06:15:39.859Z,100733.38
2023-03-17T06:18:06.448Z,100725.97
2023-03-17T06:20:33.841Z,100734.81
2023-03-17T06:23:05.041Z,100732.19
2023-03-17T06:25:33.284Z,100737.13
2023-03-17T06:27:59.979Z,100732.09
2023-03-17T06:30:26.345Z,100732.78
2023-03-17T06:32:52.715Z,100739.84
2023-03-17T06:35:19.152Z,100735.34
2023-03-17T06:37:45.653Z,100740.38
2023-03-17T06:40:14.904Z,100734.91
2023-03-17T06:42:41.304Z,100740.06
2023-03-17T06:45:08.468Z,100740.84
2023-03-17T06:47:35.735Z,100757.63
2023-03-17T06:50:02.156Z,100758.81
2023-03-17T06:52:28.795Z,100748.69
2023-03-17T06:54:55.139Z,100754.91
2023-03-17T06:57:21.500Z,100758.38
2023-03-17T06:59:47.929Z,100764.44
2023-03-17T07:02:14.902Z,100760.66
2023-03-17T07:04:41.258Z,100776.75
2023-03-17T07:07:07.825Z,100761.50
2023-03-17T07:09:34.819Z,100765.31
2023-03-17T07:12:02.277Z,100767.16
2023-03-17T07:14:28.643Z,100773.69
2023-03-17T07:16:55.019Z,100770.88
2023-03-17T07:19:21.408Z,100753.06
2023-03-17T07:21:47.768Z,100760.38
2023-03-17T07:24:14.176Z,100757.63
2023-03-17T07:26:40.572Z,100752.88
2023-03-17T07:29:07.142Z,100749.44
2023-03-17T07:31:33.663Z,100747.25
2023-03-17T07:34:00.020Z,100753.28
2023-03-17T07:36:26.352Z,100751.69
2023-03-17T07:38:52.655Z,100753.50
2023-03-17T07:41:19.080Z,100759.72
2023-03-17T07:43:45.485Z,100755.91
2023-03-17T07:46:12.053Z,100770.19
2023-03-17T07:48:38.441Z,100768.38
2023-03-17T07:51:04.948Z,100759.06
2023-03-17T07:53:31.321Z,100766.50
2023-03-17T07:55:57.696Z,100762.28
2023-03-17T07:58:24.052Z,100755.97
2023-03-17T08:00:51.006Z,100745.31
2023-03-17T08:03:17.657Z,100753.34
2023-03-17T08:05:44.044Z,100744.06
2023-03-17T08:08:10.470Z,100737.81
2023-03-17T08:10:36.853Z,100741.25
2023-03-17T08:13:03.183Z,100741.41
2023-03-17T08:15:29.622Z,100749.63
2023-03-17T08:17:55.972Z,100740.66
2023-03-17T08:20:22.331Z,100740.41
2023-03-17T08:22:48.674Z,100749.84
2023-03-17T08:25:15.164Z,100735.44
2023-03-17T08:27:41.537Z,100727.88
2023-03-17T08:30:08.382Z,100730.59
2023-03-17T08:32:34.772Z,100740.22
2023-03-17T08:35:01.326Z,100744.28
2023-03-17T08:37:27.737Z,100739.44
2023-03-17T08:39:54.127Z,100748.53
2023-03-17T08:42:20.503Z,100736.13
2023-03-17T08:44:46.893Z,100732.25
2023-03-17T08:47:13.271Z,100731.94
2023-03-17T08:49:39.608Z,100731.69
2023-03-17T08:52:05.956Z,100737.06
2023-03-17T08:54:34.709Z,100745.72
2023-03-17T08:57:01.079Z,100738.88
2023-03-17T08:59:28.738Z,100732.78
2023-03-17T09:01:55.267Z,100729.78
2023-03-17T09:04:21.598Z,100733.56
2023-03-17T09:07:02.197Z,100735.13
2023-03-17T09:09:29.908Z,100738.41
2023-03-17T09:11:56.334Z,100734.31
2023-03-17T09:14:22.640Z,100731.19
2023-03-17T09:16:49.050Z,100735.59
2023-03-17T09:19:15.382Z,100724.28
2023-03-17T09:21:42.264Z,100731.50
2023-03-17T09:24:08.840Z,100734.94
2023-03-17T09:26:35.260Z,100724.59
2023-03-17T09:29:03.769Z,100721.34
2023-03-17T09:31:32.072Z,100725.53
2023-03-17T09:33:58.583Z,100727.09
2023-03-17T09:36:25.189Z,100728.13
2023-03-17T09:38:51.627Z,100732.78
2023-03-17T09:41:27.276Z,100727.69
2023-03-17T09:44:18.764Z,100734.25
2023-03-17T09:47:07.656Z,100734.78
2023-03-17T09:49:47.805Z,100727.41
2023-03-17T09:52:22.983Z,100721.09
2023-03-17T09:54:49.871Z,100727.88
2023-03-17T09:57:34.844Z,100727.16
2023-03-17T10:00:13.790Z,100735.72
2023-03-17T10:02:41.031Z,100734.44
2023-03-17T10:05:13.529Z,100737.03
2023-03-17T10:08:31.078Z,100728.19
2023-03-17T10:11:12.778Z,100735.63
2023-03-17T10:13:41.859Z,100743.59
2023-03-17T10:16:12.800Z,100736.53
2023-03-17T10:18:49.807Z,100742.47
2023-03-17T10:21:20.656Z,100738.97
2023-03-17T10:23:47.000Z,100751.31
2023-03-17T10:26:29.640Z,100743.88
2023-03-17T10:28:56.237Z,100739.53
2023-03-17T10:31:34.292Z,100738.44
2023-03-17T10:34:22.881Z,100738.03
2023-03-17T10:36:54.037Z,100734.84
2023-03-17T10:39:23.122Z,100730.19
2023-03-17T10:41:58.889Z,100723.47
2023-03-17T10:44:51.109Z,100720.25
2023-03-17T10:47:31.467Z,100727.31
2023-03-17T10:50:17.928Z,100727.63
2023-03-17T10:52:46.438Z,100736.84
2023-03-17T10:55:18.086Z,100738.19
2023-03-17T10:58:13.564Z,100733.78
2023-03-17T11:00:54.564Z,100735.66
2023-03-17T11:03:29.119Z,100748.19
2023-03-17T11:06:16.184Z,100766.13
2023-03-17T11:08:48.168Z,100763.47
2023-03-17T11:11:34.487Z,100762.28
2023-03-17T11:14:15.099Z,100750.66
2023-03-17T11:16:54.110Z,100751.81
2023-03-17T11:19:31.361Z,100760.75
2023-03-17T11:22:13.860Z,100761.78
2023-03-17T11:24:52.845Z,100753.31
2023-03-17T11:27:47.266Z,100755.16
2023-03-17T11:30:15.993Z,100749.13
2023-03-17T11:32:51.456Z,100754.38
2023-03-17T11:35:39.539Z,100746.03
2023-03-17T11:38:26.572Z,100746.31
2023-03-17T11:41:21.953Z,100757.38
2023-03-17T11:44:10.276Z,100752.88
2023-03-17T11:46:46.506Z,100744.44
2023-03-17T11:49:31.487Z,100740.00
2023-03-17T11:52:19.125Z,100741.69
2023-03-17T11:54:57.104Z,100739.13
2023-03-17T11:57:35.331Z,100733.94
2023-03-17T12:00:14.274Z,100732.13
2023-03-17T12:02:45.418Z,100724.50
2023-03-17T12:05:19.981Z,100731.75
2023-03-17T12:07:57.548Z,100723.78
2023-03-17T12:10:30.378Z,100738.19
2023-03-17T12:13:05.683Z,100748.84
2023-03-17T12:15:36.404Z,100747.00
2023-03-17T12:18:11.894Z,100739.28
2023-03-17T12:20:59.700Z,100740.91
2023-03-17T12:23:33.593Z,100736.34
2023-03-17T12:26:05.439Z,100734.53
2023-03-17T12:28:52.634Z,100725.75
2023-03-17T12:31:26.813Z,100734.44
2023-03-17T12:34:25.815Z,100730.69
2023-03-17T12:36:52.660Z,100733.31
2023-03-17T12:39:27.817Z,100720.59
2023-03-17T12:42:12.817Z,100723.78
2023-03-17T12:45:16.420Z,100712.34
2023-03-17T12:47:58.265Z,100709.47
2023-03-17T12:50:49.557Z,100713.44
2023-03-17T12:53:30.161Z,100708.91
2023-03-17T12:56:05.364Z,100710.50
2023-03-17T12:58:43.212Z,100700.94
2023-03-17T13:01:14.897Z,100695.63
2023-03-17T13:04:12.525Z,100693.75
2023-03-17T13:06:58.275Z,100688.47
2023-03-17T13:09:32.302Z,100692.19
2023-03-17T13:12:00.055Z,100699.06
2023-03-17T13:14:27.628Z,100690.59
2023-03-17T13:17:25.058Z,100700.13
2023-03-17T13:20:12.264Z,100701.66
2023-03-17T13:22:41.982Z,100683.81
2023-03-17T13:25:30.215Z,100695.44
2023-03-17T13:28:12.133Z,100696.94
2023-03-17T13:30:38.456Z,100692.78
2023-03-17T13:33:11.157Z,100689.34
2023-03-17T13:35:53.965Z,100694.84
2023-03-17T13:38:48.549Z,100695.72
2023-03-17T13:41:37.108Z,100697.06
2023-03-17T13:44:28.405Z,100694.41
2023-03-17T13:46:55.033Z,100689.09
2023-03-17T13:49:28.668Z,100695.72
2023-03-17T13:51:59.920Z,100689.63
2023-03-17T13:54:26.923Z,100679.53
2023-03-17T13:56:54.501Z,100676.00
2023-03-17T13:59:30.051Z,100676.50
2023-03-17T14:02:24.163Z,100677.28
2023-03-17T14:05:04.727Z,100678.31
2023-03-17T14:07:40.374Z,100673.50
2023-03-17T14:10:09.588Z,100671.09
2023-03-17T14:12:36.837Z,100673.75
2023-03-17T14:15:08.582Z,100668.66
2023-03-17T14:17:40.752Z,100668.66
2023-03-17T14:20:22.107Z,100666.72
2023-03-17T14:23:01.622Z,100654.81
2023-03-17T14:25:36.386Z,100642.84
2023-03-17T14:28:06.644Z,100644.69
2023-03-17T14:30:35.771Z,100646.44
2023-03-17T14:33:07.311Z,100652.22
2023-03-17T14:35:37.226Z,100645.53
2023-03-17T14:38:17.363Z,100648.38
2023-03-17T14:40:43.833Z,100660.19
2023-03-17T14:43:10.674Z,100651.22
2023-03-17T14:45:52.244Z,100659.03
2023-03-17T14:48:32.298Z,100658.28
2023-03-17T14:51:02.015Z,100642.94
2023-03-17T14:53:29.144Z,100637.72
2023-03-17T14:55:56.233Z,100635.34
2023-03-17T14:58:30.397Z,100639.03
2023-03-17T15:01:06.521Z,100630.25
2023-03-17T15:03:38.869Z,100630.72
2023-03-17T15:06:27.540Z,100625.16
2023-03-17T15:08:57.125Z,100623.78
2023-03-17T15:11:26.548Z,100618.88
2023-03-17T15:13:56.256Z,100628.91
2023-03-17T15:16:27.244Z,100629.97
2023-03-17T15:19:02.906Z,100623.31
2023-03-17T15:21:40.151Z,100619.28
2023-03-17T15:24:39.933Z,100624.53
2023-03-17T15:27:13.651Z,100631.59
2023-03-17T15:29:40.091Z,100622.50
2023-03-17T15:32:14.814Z,100611.81
2023-03-17T15:34:41.591Z,100609.56
2023-03-17T15:37:23.390Z,100615.53
2023-03-17T15:39:51.060Z,100610.66
2023-03-17T15:42:19.597Z,100616.41
2023-03-17T15:44:46.023Z,100615.78
2023-03-17T15:47:17.366Z,100613.25
2023-03-17T15:49:44.957Z,100607.09
2023-03-17T15:52:23.440Z,100607.94
2023-03-17T15:54:49.922Z,100613.13
2023-03-17T15:57:16.350Z,100612.56
2023-03-17T15:59:42.996Z,100613.63
2023-03-17T16:02:33.788Z,100619.38
2023-03-17T16:05:01.898Z,100622.91
2023-03-17T16:07:29.195Z,100619.81
2023-03-17T16:09:55.558Z,100618.38
2023-03-17T16:12:21.921Z,100613.50
2023-03-17T16:14:48.688Z,100612.94
2023-03-17T16:17:22.238Z,100610.28
2023-03-17T16:19:48.940Z,100614.94
2023-03-17T16:22:42.718Z,100612.94
2023-03-17T16:25:25.968Z,100622.81
2023-03-17T16:27:54.495Z,100617.91
2023-03-17T16:30:26.294Z,100613.59
2023-03-17T16:32:53.689Z,100615.66
2023-03-17T16:35:22.979Z,100627.50
2023-03-17T16:37:49.771Z,100626.25
2023-03-17T16:40:18.989Z,100632.41
2023-03-17T16:42:46.031Z,100633.91
2023-03-17T16:45:28.401Z,100628.75
2023-03-17T16:47:56.491Z,100636.22
2023-03-17T16:50:26.215Z,100638.19
2023-03-17T16:52:53.228Z,100628.84
2023-03-17T16:55:20.725Z,100623.69
2023-03-17T16:57:50.380Z,100642.25
2023-03-17T17:00:22.407Z,100641.00
2023-03-17T17:02:49.857Z,100647.53
2023-03-17T17:05:21.713Z,100648.47
2023-03-17T17:07:49.173Z,100647.75
2023-03-17T17:10:18.102Z,100656.13
2023-03-17T17:12:44.900Z,100655.44
2023-03-17T17:15:12.816Z,100644.81
2023-03-17T17:17:41.655Z,100657.06
2023-03-17T17:20:16.046Z,100649.81
2023-03-17T17:22:42.593Z,100658.72
2023-03-17T17:25:09.258Z,100651.31
2023-03-17T17:27:37.594Z,100651.53
2023-03-17T17:30:05.353Z,100647.06
2023-03-17T17:32:31.776Z,100648.41
2023-03-17T17:34:58.162Z,100655.09
2023-03-17T17:37:24.596Z,100646.63
2023-03-17T17:39:51.234Z,100639.94
2023-03-17T17:42:17.578Z,100651.53
2023-03-17T17:44:43.991Z,100659.63
2023-03-17T17:47:11.146Z,100653.81
2023-03-17T17:49:37.788Z,100650.81
2023-03-17T17:52:05.576Z,100658.50
2023-03-17T17:54:32.409Z,100659.75
2023-03-17T17:56:59.264Z,100650.25
2023-03-17T17:59:26.106Z,100657.56
2023-03-17T18:01:52.852Z,100653.44
2023-03-17T18:04:19.659Z,100649.78
2023-03-17T18:06:46.249Z,100652.84
2023-03-17T18:09:13.872Z,100661.06
2023-03-17T18:11:40.687Z,100655.25
2023-03-17T18:14:08.498Z,100654.88
2023-03-17T18:16:36.248Z,100648.94
2023-03-17T18:19:05.266Z,100658.53
2023-03-17T18:21:32.272Z,100662.63
2023-03-17T18:23:58.726Z,100655.50
2023-03-17T18:26:26.597Z,100651.72
2023-03-17T18:28:53.239Z,100648.38
2023-03-17T18:31:24.284Z,100650.38
2023-03-17T18:33:58.364Z,100648.78
2023-03-17T18:36:25.089Z,100643.78
2023-03-17T18:38:51.754Z,100638.63
2023-03-17T18:41:18.671Z,100638.56
2023-03-17T18:43:45.038Z,100640.06
2023-03-17T18:46:12.627Z,100642.97
2023-03-17T18:48:40.040Z,100647.06
2023-03-17T18:51:06.450Z,100644.50
2023-03-17T18:53:32.945Z,100651.19
2023-03-17T18:55:59.368Z,100652.66
2023-03-17T18:58:26.172Z,100649.00
2023-03-17T19:00:52.760Z,100644.53
2023-03-17T19:03:19.110Z,100646.00
2023-03-17T19:05:45.728Z,100638.94
2023-03-17T19:08:12.081Z,100637.97
2023-03-17T19:10:38.441Z,100644.81
2023-03-17T19:13:04.817Z,100643.66
2023-03-17T19:15:31.138Z,100639.84
2023-03-17T19:17:57.489Z,100642.09
2023-03-17T19:20:23.889Z,100644.56
2023-03-17T19:22:50.749Z,100643.59
2023-03-17T19:25:17.175Z,100637.16
2023-03-17T19:27:43.627Z,100633.97
2023-03-17T19:30:10.721Z,100632.97
2023-03-17T19:32:37.105Z,100630.75
2023-03-17T19:35:03.676Z,100631.75
2023-03-17T19:37:30.026Z,100631.53
2023-03-17T19:39:56.431Z,100626.09
2023-03-17T19:42:22.786Z,100634.13
2023-03-17T19:44:49.179Z,100638.78
2023-03-17T19:47:15.985Z,100646.22
2023-03-17T19:49:42.338Z,100643.38
2023-03-17T19:52:09.102Z,100642.00
2023-03-17T19:54:37.187Z,100631.72
2023-03-17T19:57:04.734Z,100630.09
2023-03-17T19:59:31.153Z,100637.34
2023-03-17T20:01:57.590Z,100628.44
2023-03-17T20:04:24.159Z,100639.53
2023-03-17T20:06:50.570Z,100637.28
2023-03-17T20:09:16.893Z,100639.25
2023-03-17T20:11:43.266Z,100640.44
2023-03-17T20:14:09.669Z,100643.88
2023-03-17T20:16:36.026Z,100639.44
2023-03-17T20:19:03.281Z,100640.59
2023-03-17T20:21:29.778Z,100644.81
2023-03-17T20:23:56.132Z,100644.19
2023-03-17T20:26:22.725Z,100642.94
2023-03-17T20:28:49.201Z,100643.69
2023-03-17T20:31:15.558Z,100645.88
2023-03-17T20:33:41.952Z,100647.66
2023-03-17T20:36:08.805Z,100646.84
2023-03-17T20:38:35.360Z,100643.63
2023-03-17T20:41:16.368Z,100646.41
2023-03-17T20:43:43.338Z,100645.19
2023-03-17T20:46:16.724Z,100647.16
2023-03-17T20:48:43.475Z,100644.75
2023-03-17T20:51:12.612Z,100660.06
2023-03-17T20:53:38.944Z,100656.41
2023-03-17T20:56:05.674Z,100659.25
2023-03-17T20:58:32.036Z,100656.41
2023-03-17T21:00:58.499Z,100660.44
2023-03-17T21:03:24.885Z,100666.50
2023-03-17T21:05:51.208Z,100664.25
2023-03-17T21:08:17.549Z,100658.75
2023-03-17T21:10:43.900Z,100656.50
2023-03-17T21:13:10.366Z,100657.53
2023-03-17T21:15:36.736Z,100663.56
2023-03-17T21:18:03.242Z,100664.38
2023-03-17T21:20:30.038Z,100668.63
2023-03-17T21:22:56.607Z,100675.09
2023-03-17T21:25:23.445Z,100672.47
2023-03-17T21:27:49.867Z,100673.69
2023-03-17T21:30:16.661Z,100674.50
2023-03-17T21:32:43.162Z,100686.16
2023-03-17T21:35:11.249Z,100680.72
2023-03-17T21:37:37.646Z,100689.16
2023-03-17T21:40:04.873Z,100694.34
2023-03-17T21:42:31.245Z,100694.50
2023-03-17T21:45:00.889Z,100698.13
2023-03-17T21:47:27.357Z,100698.91
2023-03-17T21:49:53.702Z,100694.41
2023-03-17T21:52:20.050Z,100700.31
2023-03-17T21:54:46.419Z,100701.63
2023-03-17T21:57:12.910Z,100703.81
2023-03-17T21:59:39.395Z,100702.34
2023-03-17T22:02:06.173Z,100699.50
2023-03-17T22:04:32.546Z,100697.88
2023-03-17T22:06:58.951Z,100692.28
2023-03-17T22:09:25.930Z,100707.03
2023-03-17T22:11:52.284Z,100709.06
2023-03-17T22:14:18.621Z,100700.03
2023-03-17T22:16:45.521Z,100704.63
2023-03-17T22:19:11.902Z,100705.41
2023-03-17T22:21:38.229Z,100699.00
2023-03-17T22:24:04.820Z,100699.44
2023-03-17T22:26:31.180Z,100705.50
2023-03-17T22:28:57.523Z,100701.81
2023-03-17T22:31:26.795Z,100710.75
2023-03-17T22:33:55.462Z,100717.59
2023-03-17T22:36:23.457Z,100713.16
2023-03-17T22:38:50.185Z,100709.13
2023-03-17T22:41:20.502Z,100705.69
2023-03-17T22:43:47.350Z,100709.59
2023-03-17T22:46:15.009Z,100709.22
2023-03-17T22:48:41.564Z,100714.25
2023-03-17T22:51:11.594Z,100726.13
2023-03-17T22:53:39.253Z,100728.56
2023-03-17T22:56:07.264Z,100723.50
2023-03-17T22:58:34.217Z,100724.31
2023-03-17T23:01:00.769Z,100720.88
2023-03-17T23:03:27.738Z,100722.72
2023-03-17T23:05:57.512Z,100723.97
2023-03-17T23:08:24.810Z,100735.69
2023-03-17T23:10:51.493Z,100731.84
2023-03-17T23:13:19.086Z,100741.69
2023-03-17T23:15:45.622Z,100738.03
2023-03-17T23:18:12.114Z,100735.41
2023-03-17T23:20:39.334Z,100727.09
2023-03-17T23:23:06.889Z,100738.84
2023-03-17T23:25:34.527Z,100752.19
2023-03-17T23:28:01.103Z,100744.75
2023-03-17T23:30:27.537Z,100744.31
2023-03-17T23:32:53.943Z,100745.31
2023-03-17T23:35:20.331Z,100732.19
2023-03-17T23:37:47.170Z,100739.44
2023-03-17T23:40:14.679Z,100741.47
2023-03-17T23:42:41.308Z,100738.28
2023-03-17T23:45:08.155Z,100742.69
2023-03-17T23:47:34.591Z,100749.56
2023-03-17T23:50:00.894Z,100739.50
2023-03-17T23:52:27.310Z,100750.44
2023-03-17T23:54:53.683Z,100749.50
2023-03-17T23:57:20.142Z,100749.91
2023-03-17T23:59:46.534Z,100747.28
